createdAt,value
2022-08-16T00:01:14.414Z,18.13
2022-08-16T00:03:41.493Z,18.53
2022-08-16T00:06:10.127Z,18.65
2022-08-16T00:08:37.981Z,19.42
2022-08-16T00:11:15.895Z,17.77
2022-08-16T00:13:54.392Z,18.50
2022-08-16T00:17:01.067Z,18.07
2022-08-16T00:19:13.769Z,18.90
2022-08-16T00:21:41.093Z,22.23
2022-08-16T00:24:11.526Z,19.55
2022-08-16T00:26:44.976Z,19.58
2022-08-16T00:29:17.282Z,21.70
2022-08-16T00:31:58.827Z,21.33
2022-08-16T00:34:43.195Z,20.65
2022-08-16T00:37:12.099Z,20.30
2022-08-16T00:39:44.855Z,20.38
2022-08-16T00:42:12.075Z,20.20
2022-08-16T00:44:40.111Z,20.60
2022-08-16T00:47:10.710Z,18.92
2022-08-16T00:49:39.516Z,20.48
2022-08-16T00:52:30.247Z,23.58
2022-08-16T00:54:57.974Z,22.13
2022-08-16T00:57:25.030Z,22.48
2022-08-16T00:59:58.859Z,22.52
2022-08-16T01:02:30.539Z,22.70
2022-08-16T01:05:09.438Z,21.20
2022-08-16T01:07:50.795Z,21.37
2022-08-16T01:10:21.161Z,24.63
2022-08-16T01:13:00.395Z,23.80
2022-08-16T01:15:28.424Z,22.45
2022-08-16T01:17:57.902Z,22.83
2022-08-16T01:20:30.318Z,21.13
2022-08-16T01:23:08.807Z,23.35
2022-08-16T01:25:37.750Z,22.77
2022-08-16T01:28:08.383Z,21.80
2022-08-16T01:30:40.114Z,21.17
2022-08-16T01:33:17.848Z,24.87
2022-08-16T01:35:52.644Z,22.35
2022-08-16T01:38:28.039Z,23.15
2022-08-16T01:40:56.743Z,23.65
2022-08-16T01:43:24.851Z,23.80
2022-08-16T01:45:57.745Z,23.23
2022-08-16T01:48:27.482Z,25.40
2022-08-16T01:51:09.438Z,23.00
2022-08-16T01:53:42.049Z,24.75
2022-08-16T01:56:24.757Z,24.38
2022-08-16T01:58:54.531Z,22.60
2022-08-16T02:01:21.737Z,23.40
2022-08-16T02:03:50.709Z,23.75
2022-08-16T02:06:34.422Z,23.20
2022-08-16T02:09:05.050Z,23.30
2022-08-16T02:11:47.644Z,23.00
2022-08-16T02:14:21.663Z,22.33
2022-08-16T02:16:49.203Z,21.75
2022-08-16T02:19:20.330Z,23.45
2022-08-16T02:22:09.125Z,23.88
2022-08-16T02:24:46.083Z,22.77
2022-08-16T02:27:13.873Z,24.92
2022-08-16T02:29:42.966Z,24.75
2022-08-16T02:32:51.149Z,23.80
2022-08-16T02:34:58.549Z,22.40
2022-08-16T02:37:39.835Z,26.23
2022-08-16T02:40:16.413Z,23.23
2022-08-16T02:42:47.971Z,24.33
2022-08-16T02:45:18.137Z,24.83
2022-08-16T02:48:01.386Z,23.88
2022-08-16T02:50:55.226Z,23.90
2022-08-16T02:53:23.603Z,24.95
2022-08-16T02:55:51.219Z,23.88
2022-08-16T02:58:18.949Z,22.48
2022-08-16T03:00:49.983Z,22.65
2022-08-16T03:03:18.130Z,23.77
2022-08-16T03:05:49.782Z,27.52
2022-08-16T03:08:51.172Z,24.08
2022-08-16T03:11:16.575Z,23.65
2022-08-16T03:13:50.615Z,24.65
2022-08-16T03:16:37.939Z,23.93
2022-08-16T03:19:06.785Z,25.42
2022-08-16T03:21:37.484Z,26.50
2022-08-16T03:24:05.553Z,26.33
2022-08-16T03:26:32.785Z,25.42
2022-08-16T03:28:59.938Z,25.60
2022-08-16T03:31:34.781Z,23.65
2022-08-16T03:34:07.664Z,24.70
2022-08-16T03:36:35.930Z,24.38
2022-08-16T03:39:03.556Z,23.67
2022-08-16T03:41:50.734Z,26.20
2022-08-16T03:44:44.955Z,24.88
2022-08-16T03:47:05.192Z,24.67
2022-08-16T03:49:37.750Z,22.27
2022-08-16T03:52:06.222Z,24.60
2022-08-16T03:54:35.591Z,24.70
2022-08-16T03:57:05.059Z,26.20
2022-08-16T03:59:32.547Z,24.88
2022-08-16T04:02:01.236Z,23.70
2022-08-16T04:04:32.397Z,23.23
2022-08-16T04:07:00.008Z,27.60
2022-08-16T04:09:27.081Z,26.08
2022-08-16T04:11:54.272Z,25.77
2022-08-16T04:14:32.760Z,28.17
2022-08-16T04:17:01.637Z,27.63
2022-08-16T04:19:31.546Z,25.67
2022-08-16T04:22:00.941Z,28.48
2022-08-16T04:24:28.839Z,24.58
2022-08-16T04:26:56.179Z,24.95
2022-08-16T04:29:25.093Z,24.95
2022-08-16T04:31:56.924Z,25.20
2022-08-16T04:34:26.500Z,26.05
2022-08-16T04:36:54.095Z,23.73
2022-08-16T04:39:23.876Z,23.88
2022-08-16T04:41:57.020Z,26.13
2022-08-16T04:44:52.611Z,23.40
2022-08-16T04:47:24.221Z,24.30
2022-08-16T04:49:52.223Z,23.35
2022-08-16T04:52:34.620Z,24.85
2022-08-16T04:55:11.833Z,26.17
2022-08-16T04:57:39.593Z,26.13
2022-08-16T05:00:30.696Z,21.67
2022-08-16T05:03:01.212Z,25.67
2022-08-16T05:05:32.690Z,23.83
2022-08-16T05:08:28.060Z,24.63
2022-08-16T05:10:48.701Z,26.10
2022-08-16T05:13:17.911Z,22.60
2022-08-16T05:15:45.594Z,23.38
2022-08-16T05:18:18.288Z,23.17
2022-08-16T05:20:56.994Z,23.38
2022-08-16T05:23:31.738Z,21.53
2022-08-16T05:26:00.302Z,22.40
2022-08-16T05:28:30.963Z,21.40
2022-08-16T05:31:04.858Z,23.42
2022-08-16T05:33:34.338Z,21.30
2022-08-16T05:36:03.922Z,22.93
2022-08-16T05:38:39.006Z,24.23
2022-08-16T05:41:07.267Z,22.13
2022-08-16T05:43:43.765Z,21.20
2022-08-16T05:46:29.547Z,21.42
2022-08-16T05:49:03.668Z,22.27
2022-08-16T05:51:35.360Z,22.83
2022-08-16T05:54:08.258Z,22.38
2022-08-16T05:56:37.778Z,23.88
2022-08-16T05:59:06.128Z,23.02
2022-08-16T06:01:38.141Z,22.53
2022-08-16T06:04:13.642Z,20.65
2022-08-16T06:06:56.490Z,20.77
2022-08-16T06:09:25.734Z,21.25
2022-08-16T06:12:10.562Z,21.75
2022-08-16T06:14:38.010Z,25.47
2022-08-16T06:17:07.333Z,22.58
2022-08-16T06:19:35.806Z,24.15
2022-08-16T06:22:03.123Z,23.13
2022-08-16T06:24:53.570Z,23.52
2022-08-16T06:27:17.607Z,23.43
2022-08-16T06:29:50.170Z,24.65
2022-08-16T06:32:27.132Z,26.25
2022-08-16T06:35:02.084Z,26.52
2022-08-16T06:37:37.535Z,25.92
2022-08-16T06:40:05.510Z,29.13
2022-08-16T06:42:53.916Z,29.33
2022-08-16T06:45:24.546Z,29.15
2022-08-16T06:47:57.028Z,29.38
2022-08-16T06:50:29.582Z,28.08
2022-08-16T06:53:00.974Z,31.87
2022-08-16T06:55:34.422Z,30.00
2022-08-16T06:58:02.335Z,31.30
2022-08-16T07:00:37.848Z,30.52
2022-08-16T07:03:28.095Z,31.70
2022-08-16T07:05:53.807Z,27.77
2022-08-16T07:08:21.099Z,31.00
2022-08-16T07:10:48.291Z,28.55
2022-08-16T07:13:26.726Z,30.13
2022-08-16T07:16:03.250Z,29.05
2022-08-16T07:18:30.466Z,29.63
2022-08-16T07:21:01.741Z,29.70
2022-08-16T07:23:38.634Z,32.08
2022-08-16T07:26:08.293Z,30.13
2022-08-16T07:28:35.480Z,28.30
2022-08-16T07:31:03.194Z,28.77
2022-08-16T07:33:52.628Z,29.52
2022-08-16T07:36:21.940Z,29.35
2022-08-16T07:38:50.154Z,31.90
2022-08-16T07:41:17.562Z,31.30
2022-08-16T07:43:46.117Z,30.58
2022-08-16T07:46:37.929Z,31.17
2022-08-16T07:49:02.281Z,29.45
2022-08-16T07:51:33.043Z,31.95
2022-08-16T07:54:09.667Z,30.60
2022-08-16T07:56:38.098Z,30.60
2022-08-16T07:59:05.920Z,29.85
2022-08-16T08:01:33.058Z,34.08
2022-08-16T08:04:02.467Z,31.17
2022-08-16T08:06:30.267Z,35.00
2022-08-16T08:08:59.370Z,34.97
2022-08-16T08:11:28.290Z,31.80
2022-08-16T08:13:55.708Z,30.42
2022-08-16T08:16:30.310Z,32.40
2022-08-16T08:19:01.033Z,31.57
2022-08-16T08:22:00.009Z,30.15
2022-08-16T08:24:16.887Z,28.73
2022-08-16T08:26:44.403Z,28.75
2022-08-16T08:29:12.000Z,27.40
2022-08-16T08:31:42.190Z,26.53
2022-08-16T08:34:09.370Z,25.90
2022-08-16T08:36:40.131Z,26.70
2022-08-16T08:39:12.657Z,27.52
2022-08-16T08:41:40.443Z,25.33
2022-08-16T08:44:28.508Z,28.97
2022-08-16T08:47:00.505Z,31.00
2022-08-16T08:49:46.388Z,28.85
2022-08-16T08:52:34.583Z,28.13
2022-08-16T08:55:10.771Z,24.48
2022-08-16T08:57:45.466Z,31.20
2022-08-16T09:00:14.327Z,34.78
2022-08-16T09:02:45.551Z,26.50
2022-08-16T09:05:19.610Z,24.20
2022-08-16T09:08:00.506Z,24.55
2022-08-16T09:10:30.094Z,25.27
2022-08-16T09:12:57.776Z,29.30
2022-08-16T09:15:25.269Z,26.13
2022-08-16T09:18:00.067Z,24.08
2022-08-16T09:20:29.420Z,28.17
2022-08-16T09:22:57.285Z,25.50
2022-08-16T09:25:26.190Z,27.67
2022-08-16T09:28:08.937Z,24.98
2022-08-16T09:30:44.179Z,27.05
2022-08-16T09:33:13.628Z,26.00
2022-08-16T09:35:42.787Z,23.77
2022-08-16T09:38:12.399Z,24.98
2022-08-16T09:40:58.915Z,24.65
2022-08-16T09:43:58.428Z,26.67
2022-08-16T09:46:33.468Z,26.75
2022-08-16T09:49:03.391Z,25.40
2022-08-16T09:51:36.798Z,28.63
2022-08-16T09:54:05.341Z,26.60
2022-08-16T09:56:33.942Z,27.05
2022-08-16T09:59:05.509Z,28.15
2022-08-16T10:01:36.350Z,28.20
2022-08-16T10:04:04.583Z,25.08
2022-08-16T10:06:34.391Z,27.15
2022-08-16T10:09:05.962Z,26.33
2022-08-16T10:11:53.619Z,27.13
2022-08-16T10:14:24.658Z,27.50
2022-08-16T10:17:02.237Z,26.10
2022-08-16T10:19:32.060Z,27.25
2022-08-16T10:21:59.875Z,24.00
2022-08-16T10:24:32.628Z,26.60
2022-08-16T10:27:18.900Z,26.10
2022-08-16T10:30:00.627Z,26.17
2022-08-16T10:32:30.360Z,28.17
2022-08-16T10:34:58.085Z,25.27
2022-08-16T10:37:32.650Z,27.75
2022-08-16T10:40:05.634Z,30.40
2022-08-16T10:42:32.779Z,28.98
2022-08-16T10:45:00.565Z,28.15
2022-08-16T10:47:28.187Z,27.50
2022-08-16T10:49:59.441Z,27.55
2022-08-16T10:52:26.941Z,29.10
2022-08-16T10:55:43.720Z,27.05
2022-08-16T10:57:48.961Z,31.35
2022-08-16T11:00:20.862Z,28.88
2022-08-16T11:02:58.247Z,25.25
2022-08-16T11:08:35.507Z,28.95
2022-08-16T11:11:11.540Z,29.10
2022-08-16T11:14:11.143Z,27.10
2022-08-16T11:19:22.601Z,26.43
2022-08-16T11:24:42.511Z,28.10
2022-08-16T11:27:23.739Z,27.30
2022-08-16T11:29:52.817Z,26.73
2022-08-16T11:32:29.922Z,26.10
2022-08-16T11:35:10.323Z,26.00
2022-08-16T11:40:34.233Z,27.35
2022-08-16T11:43:04.640Z,22.33
2022-08-16T11:45:33.723Z,23.80
2022-08-16T11:48:03.244Z,25.05
2022-08-16T11:50:33.231Z,23.67
2022-08-16T11:53:03.406Z,26.65
2022-08-16T11:55:30.656Z,23.42
2022-08-16T11:57:57.802Z,25.47
2022-08-16T12:00:34.112Z,25.25
2022-08-16T12:03:12.307Z,22.42
2022-08-16T12:05:40.456Z,26.13
2022-08-16T12:08:09.323Z,27.80
2022-08-16T12:10:38.554Z,27.37
2022-08-16T12:13:07.295Z,26.83
2022-08-16T12:15:37.769Z,25.67
2022-08-16T12:18:06.877Z,26.88
2022-08-16T12:20:37.381Z,24.45
2022-08-16T12:23:05.215Z,25.67
2022-08-16T12:25:32.819Z,24.33
2022-08-16T12:28:02.887Z,28.00
2022-08-16T12:30:36.257Z,25.80
2022-08-16T12:33:06.734Z,25.13
2022-08-16T12:35:35.339Z,28.00
2022-08-16T12:38:37.875Z,24.67
2022-08-16T12:40:50.898Z,27.63
2022-08-16T12:43:23.361Z,27.92
2022-08-16T12:45:51.945Z,24.38
2022-08-16T12:48:39.084Z,30.10
2022-08-16T12:51:13.409Z,27.73
2022-08-16T12:53:47.167Z,26.83
2022-08-16T12:56:14.462Z,21.63
2022-08-16T12:58:50.170Z,23.30
2022-08-16T13:01:22.367Z,22.73
2022-08-16T13:03:50.174Z,21.85
2022-08-16T13:06:33.421Z,21.35
2022-08-16T13:09:14.956Z,25.55
2022-08-16T13:11:52.213Z,24.20
2022-08-16T13:14:31.285Z,19.27
2022-08-16T13:17:01.858Z,18.30
2022-08-16T13:19:56.007Z,19.77
2022-08-16T13:22:18.597Z,15.60
2022-08-16T13:24:47.094Z,17.05
2022-08-16T13:27:14.184Z,16.13
2022-08-16T13:29:44.068Z,19.05
2022-08-16T13:32:40.546Z,19.02
2022-08-16T13:34:58.600Z,15.27
2022-08-16T13:37:28.257Z,16.42
2022-08-16T13:39:55.641Z,21.80
2022-08-16T13:42:22.866Z,18.88
2022-08-16T13:44:56.282Z,24.00
2022-08-16T13:47:25.741Z,22.25
2022-08-16T13:49:57.554Z,21.23
2022-08-16T13:52:25.254Z,17.70
2022-08-16T13:55:01.335Z,20.80
2022-08-16T13:58:34.145Z,19.38
2022-08-16T14:00:19.461Z,21.83
2022-08-16T14:02:48.429Z,20.38
2022-08-16T14:05:22.025Z,20.23
2022-08-16T14:07:52.889Z,22.48
2022-08-16T14:10:20.341Z,22.85
2022-08-16T14:12:48.389Z,21.13
2022-08-16T14:15:16.024Z,21.00
2022-08-16T14:18:17.438Z,22.37
2022-08-16T14:20:30.812Z,19.33
2022-08-16T14:22:58.833Z,18.05
2022-08-16T14:25:26.931Z,16.77
2022-08-16T14:27:55.082Z,17.10
2022-08-16T14:30:23.506Z,19.67
2022-08-16T14:32:51.677Z,15.27
2022-08-16T14:35:20.742Z,16.15
2022-08-16T14:37:52.592Z,15.75
2022-08-16T14:40:24.192Z,16.90
2022-08-16T14:42:56.647Z,16.90
2022-08-16T14:45:26.861Z,14.55
2022-08-16T14:47:54.349Z,16.73
2022-08-16T14:50:23.654Z,15.63
2022-08-16T14:53:01.963Z,15.75
2022-08-16T14:55:31.609Z,15.83
2022-08-16T14:57:59.348Z,14.82
2022-08-16T15:00:34.005Z,13.63
2022-08-16T15:03:09.954Z,11.07
2022-08-16T15:05:37.683Z,14.80
2022-08-16T15:08:04.914Z,12.93
2022-08-16T15:10:32.614Z,10.45
2022-08-16T15:13:00.919Z,12.48
2022-08-16T15:15:29.125Z,15.05
2022-08-16T15:17:57.533Z,15.75
2022-08-16T15:20:26.989Z,12.83
2022-08-16T15:22:57.690Z,13.63
2022-08-16T15:25:35.491Z,13.32
2022-08-16T15:28:05.667Z,12.13
2022-08-16T15:30:57.950Z,15.10
2022-08-16T15:33:21.751Z,15.23
2022-08-16T15:35:52.725Z,14.30
2022-08-16T15:38:43.525Z,19.52
2022-08-16T15:41:09.862Z,13.18
2022-08-16T15:43:40.569Z,11.95
2022-08-16T15:46:35.560Z,15.03
2022-08-16T15:49:12.021Z,11.70
2022-08-16T15:51:39.453Z,13.80
2022-08-16T15:54:21.541Z,15.43
2022-08-16T15:56:55.280Z,15.07
2022-08-16T15:59:27.344Z,13.83
2022-08-16T16:01:55.835Z,14.70
2022-08-16T16:04:25.639Z,16.27
2022-08-16T16:06:55.398Z,18.50
2022-08-16T16:09:34.522Z,14.27
2022-08-16T16:12:11.992Z,17.83
2022-08-16T16:14:48.797Z,16.75
2022-08-16T16:17:17.693Z,17.42
2022-08-16T16:19:44.783Z,17.95
2022-08-16T16:22:16.927Z,18.77
2022-08-16T16:24:46.982Z,22.03
2022-08-16T16:27:14.340Z,20.10
2022-08-16T16:29:46.348Z,19.00
2022-08-16T16:32:18.039Z,18.20
2022-08-16T16:35:01.613Z,20.88
2022-08-16T16:37:30.904Z,17.50
2022-08-16T16:39:58.560Z,18.25
2022-08-16T16:42:29.964Z,19.95
2022-08-16T16:45:01.221Z,22.10
2022-08-16T16:47:29.405Z,19.60
2022-08-16T16:49:56.546Z,17.10
2022-08-16T16:52:43.629Z,17.25
2022-08-16T16:55:12.664Z,17.17
2022-08-16T16:57:58.655Z,14.40
2022-08-16T17:00:37.507Z,16.20
2022-08-16T17:03:06.380Z,24.27
2022-08-16T17:05:54.223Z,20.27
2022-08-16T17:08:26.037Z,23.25
2022-08-16T17:10:54.073Z,22.65
2022-08-16T17:13:23.387Z,22.90
2022-08-16T17:15:52.163Z,24.13
2022-08-16T17:19:14.412Z,23.27
2022-08-16T17:21:08.307Z,29.67
2022-08-16T17:23:58.749Z,26.08
2022-08-16T17:26:29.963Z,24.38
2022-08-16T17:29:10.683Z,27.77
2022-08-16T17:31:40.937Z,25.77
2022-08-16T17:34:29.584Z,26.83
2022-08-16T17:36:58.716Z,26.95
2022-08-16T17:39:29.582Z,25.60
2022-08-16T17:41:57.091Z,28.07
2022-08-16T17:44:24.268Z,28.13
2022-08-16T17:46:52.968Z,26.52
2022-08-16T17:49:20.550Z,25.60
2022-08-16T17:51:47.887Z,25.48
2022-08-16T17:54:29.910Z,26.70
2022-08-16T17:57:00.872Z,25.85
2022-08-16T17:59:28.571Z,23.80
2022-08-16T18:01:56.092Z,23.98
2022-08-16T18:04:49.464Z,21.42
2022-08-16T18:07:12.057Z,22.10
2022-08-16T18:09:40.944Z,23.58
2022-08-16T18:12:19.800Z,23.83
2022-08-16T18:15:02.851Z,19.50
2022-08-16T18:17:29.901Z,20.98
2022-08-16T18:19:56.941Z,20.10
2022-08-16T18:22:30.722Z,21.10
2022-08-16T18:24:58.533Z,22.58
2022-08-16T18:27:27.282Z,19.55
2022-08-16T18:29:55.038Z,19.50
2022-08-16T18:32:24.768Z,20.77
2022-08-16T18:34:52.458Z,21.38
2022-08-16T18:37:20.889Z,19.70
2022-08-16T18:39:48.038Z,23.35
2022-08-16T18:42:15.594Z,23.25
2022-08-16T18:44:44.512Z,22.80
2022-08-16T18:47:11.842Z,25.08
2022-08-16T18:49:38.986Z,22.50
2022-08-16T18:52:06.141Z,24.77
2022-08-16T18:54:34.021Z,23.50
2022-08-16T18:57:21.082Z,25.80
2022-08-16T18:59:48.140Z,22.05
2022-08-16T19:02:43.068Z,22.80
2022-08-16T19:05:13.569Z,21.88
2022-08-16T19:07:40.684Z,21.25
2022-08-16T19:10:08.920Z,21.17
2022-08-16T19:12:42.089Z,21.35
2022-08-16T19:15:14.369Z,19.23
2022-08-16T19:17:42.869Z,19.58
2022-08-16T19:20:11.197Z,19.95
2022-08-16T19:23:10.531Z,20.03
2022-08-16T19:25:39.451Z,21.02
2022-08-16T19:28:33.315Z,22.30
2022-08-16T19:31:03.083Z,23.58
2022-08-16T19:33:30.249Z,20.85
2022-08-16T19:35:57.327Z,21.57
2022-08-16T19:38:24.498Z,21.92
2022-08-16T19:40:51.591Z,19.15
2022-08-16T19:43:21.729Z,19.35
2022-08-16T19:45:49.340Z,21.63
2022-08-16T19:48:16.494Z,20.47
2022-08-16T19:50:43.626Z,19.80
2022-08-16T19:53:18.525Z,18.55
2022-08-16T19:55:47.434Z,20.67
2022-08-16T19:58:16.341Z,21.52
2022-08-16T20:00:44.918Z,20.13
2022-08-16T20:03:16.827Z,25.30
2022-08-16T20:05:44.390Z,21.45
2022-08-16T20:08:16.573Z,19.90
2022-08-16T20:10:45.458Z,19.65
2022-08-16T20:13:16.963Z,20.23
2022-08-16T20:15:44.364Z,20.73
2022-08-16T20:18:21.311Z,20.33
2022-08-16T20:20:52.774Z,20.40
2022-08-16T20:23:25.369Z,18.70
2022-08-16T20:25:59.702Z,18.30
2022-08-16T20:28:51.677Z,20.15
2022-08-16T20:31:14.324Z,18.67
2022-08-16T20:33:43.570Z,22.25
2022-08-16T20:36:10.681Z,20.10
2022-08-16T20:38:45.762Z,19.33
2022-08-16T20:41:12.970Z,19.10
2022-08-16T20:43:40.251Z,20.88
2022-08-16T20:46:07.375Z,19.13
2022-08-16T20:48:34.551Z,21.65
2022-08-16T20:51:01.761Z,23.33
2022-08-16T20:53:28.936Z,22.80
2022-08-16T20:55:56.608Z,22.60
2022-08-16T20:58:23.677Z,23.48
2022-08-16T21:00:50.907Z,24.10
2022-08-16T21:03:18.170Z,23.90
2022-08-16T21:05:46.418Z,25.23
2022-08-16T21:08:50.312Z,24.02
2022-08-16T21:11:02.082Z,28.50
2022-08-16T21:13:32.618Z,26.23
2022-08-16T21:16:00.459Z,29.57
2022-08-16T21:18:27.604Z,27.92
2022-08-16T21:20:54.790Z,30.75
2022-08-16T21:23:22.108Z,29.63
2022-08-16T21:25:59.043Z,27.75
2022-08-16T21:28:40.562Z,29.10
2022-08-16T21:31:11.166Z,28.45
2022-08-16T21:33:38.370Z,30.55
2022-08-16T21:36:05.734Z,30.42
2022-08-16T21:38:32.839Z,29.25
2022-08-16T21:41:00.183Z,29.57
2022-08-16T21:43:31.709Z,31.23
2022-08-16T21:45:59.114Z,30.52
2022-08-16T21:48:35.092Z,33.80
2022-08-16T21:51:04.477Z,32.08
2022-08-16T21:53:31.572Z,33.57
2022-08-16T21:55:59.599Z,33.53
2022-08-16T21:58:26.708Z,34.15
2022-08-16T22:00:53.811Z,31.25
2022-08-16T22:03:21.275Z,33.70
2022-08-16T22:06:11.610Z,34.57
2022-08-16T22:08:46.728Z,38.85
2022-08-16T22:11:18.801Z,34.47
2022-08-16T22:13:58.218Z,36.55
2022-08-16T22:16:31.305Z,32.90
2022-08-16T22:18:58.669Z,35.80
2022-08-16T22:21:25.908Z,37.63
2022-08-16T22:23:57.133Z,37.15
2022-08-16T22:26:30.652Z,38.67
2022-08-16T22:28:59.802Z,35.40
2022-08-16T22:31:27.343Z,37.93
2022-08-16T22:33:55.893Z,34.67
2022-08-16T22:36:23.096Z,37.42
2022-08-16T22:38:55.576Z,33.78
2022-08-16T22:41:24.200Z,35.55
2022-08-16T22:43:51.260Z,35.40
2022-08-16T22:46:19.318Z,34.47
2022-08-16T22:48:46.514Z,33.45
2022-08-16T22:51:13.679Z,32.75
2022-08-16T22:53:40.795Z,33.50
2022-08-16T22:56:08.220Z,33.17
2022-08-16T22:58:37.105Z,33.67
2022-08-16T23:01:05.736Z,36.08
2022-08-16T23:03:33.105Z,34.85
2022-08-16T23:06:00.708Z,36.42
2022-08-16T23:08:38.064Z,34.13
2022-08-16T23:11:07.647Z,33.08
2022-08-16T23:13:34.742Z,36.10
2022-08-16T23:16:11.395Z,32.55
2022-08-16T23:18:40.883Z,33.60
2022-08-16T23:21:09.326Z,33.53
2022-08-16T23:23:36.857Z,31.83
2022-08-16T23:26:45.366Z,33.03
2022-08-16T23:28:51.963Z,32.60
2022-08-16T23:31:19.310Z,31.83
2022-08-16T23:33:46.485Z,31.23
2022-08-16T23:36:13.825Z,30.25
2022-08-16T23:38:41.731Z,33.25
2022-08-16T23:41:11.454Z,31.58
2022-08-16T23:43:41.784Z,28.88
2022-08-16T23:46:11.610Z,30.87
2022-08-16T23:49:56.290Z,32.25
2022-08-16T23:51:25.855Z,30.50
2022-08-16T23:53:55.514Z,30.88
2022-08-16T23:56:22.587Z,30.92
2022-08-16T23:58:54.350Z,28.67
